createdAt,value
2018-05-09T00:01:05.353Z,101240.23
2018-05-09T00:03:32.758Z,101238.95
2018-05-09T00:06:00.206Z,101239.12
2018-05-09T00:08:27.614Z,101239.73
2018-05-09T00:10:55.038Z,101231.34
2018-05-09T00:13:22.517Z,101235.31
2018-05-09T00:15:49.925Z,101236.34
2018-05-09T00:18:17.364Z,101239.33
2018-05-09T00:20:44.789Z,101237.50
2018-05-09T00:23:12.221Z,101236.27
2018-05-09T00:25:39.638Z,101236.27
2018-05-09T00:28:07.074Z,101232.47
2018-05-09T00:30:34.482Z,101227.01
2018-05-09T00:33:01.922Z,101220.77
2018-05-09T00:35:29.330Z,101224.23
2018-05-09T00:37:56.781Z,101222.91
2018-05-09T00:40:24.193Z,101224.73
2018-05-09T00:42:51.700Z,101217.91
2018-05-09T00:45:19.113Z,101216.18
2018-05-09T00:47:46.577Z,101218.48
2018-05-09T00:50:14.163Z,101218.78
2018-05-09T00:52:41.486Z,101218.81
2018-05-09T00:55:08.983Z,101217.58
2018-05-09T00:57:36.391Z,101215.02
2018-05-09T01:00:03.829Z,101219.36
2018-05-09T01:02:31.237Z,101215.27
2018-05-09T01:04:58.701Z,101218.11
2018-05-09T01:07:26.113Z,101217.13
2018-05-09T01:09:53.549Z,101214.65
2018-05-09T01:12:20.964Z,101214.28
2018-05-09T01:14:48.433Z,101208.53
2018-05-09T01:17:15.850Z,101200.59
2018-05-09T01:19:43.342Z,101195.05
2018-05-09T01:22:10.798Z,101198.52
2018-05-09T01:24:38.236Z,101201.33
2018-05-09T01:27:05.642Z,101203.27
2018-05-09T01:29:33.077Z,101199.06
2018-05-09T01:32:01.412Z,101199.73
2018-05-09T01:34:28.854Z,101206.59
2018-05-09T01:36:56.354Z,101202.41
2018-05-09T01:39:23.789Z,101207.00
2018-05-09T01:41:51.203Z,101205.22
2018-05-09T01:44:18.730Z,101199.93
2018-05-09T01:46:46.137Z,101198.28
2018-05-09T01:49:13.569Z,101198.03
2018-05-09T01:51:40.993Z,101199.14
2018-05-09T01:54:08.449Z,101202.85
2018-05-09T01:56:35.889Z,101195.25
2018-05-09T01:59:03.361Z,101201.37
2018-05-09T02:01:30.817Z,101199.51
2018-05-09T02:03:58.278Z,101193.22
2018-05-09T02:06:25.722Z,101200.36
2018-05-09T02:08:53.130Z,101199.23
2018-05-09T02:11:20.658Z,101198.54
2018-05-09T02:13:48.065Z,101206.41
2018-05-09T02:16:15.499Z,101202.50
2018-05-09T02:18:42.917Z,101192.90
2018-05-09T02:21:10.353Z,101202.59
2018-05-09T02:23:37.765Z,101198.16
2018-05-09T02:26:05.197Z,101198.23
2018-05-09T02:28:32.645Z,101199.64
2018-05-09T02:31:00.060Z,101195.50
2018-05-09T02:33:27.489Z,101193.55
2018-05-09T02:35:54.904Z,101194.27
2018-05-09T02:38:22.334Z,101186.44
2018-05-09T02:40:49.741Z,101189.20
2018-05-09T02:43:17.182Z,101187.29
2018-05-09T02:45:44.639Z,101190.61
2018-05-09T02:48:12.091Z,101199.12
2018-05-09T02:50:39.550Z,101196.69
2018-05-09T02:53:07.002Z,101192.81
2018-05-09T02:55:34.413Z,101199.65
2018-05-09T02:58:01.853Z,101201.12
2018-05-09T03:00:29.261Z,101203.15
2018-05-09T03:02:56.731Z,101201.27
2018-05-09T03:05:24.134Z,101209.31
2018-05-09T03:07:51.630Z,101205.05
2018-05-09T03:10:19.037Z,101208.89
2018-05-09T03:12:46.461Z,101204.05
2018-05-09T03:15:13.915Z,101207.48
2018-05-09T03:17:42.254Z,101201.24
2018-05-09T03:20:09.750Z,101202.14
2018-05-09T03:22:37.197Z,101205.98
2018-05-09T03:25:04.657Z,101199.73
2018-05-09T03:27:32.077Z,101203.55
2018-05-09T03:29:59.581Z,101205.02
2018-05-09T03:32:27.042Z,101199.92
2018-05-09T03:34:54.470Z,101202.38
2018-05-09T03:37:22.856Z,101204.99
2018-05-09T03:39:50.334Z,101199.97
2018-05-09T03:42:17.737Z,101194.88
2018-05-09T03:44:45.237Z,101205.91
2018-05-09T03:47:12.706Z,101202.93
2018-05-09T03:49:40.153Z,101202.45
2018-05-09T03:52:07.602Z,101200.41
2018-05-09T03:54:35.061Z,101201.53
2018-05-09T03:57:02.509Z,101200.63
2018-05-09T03:59:29.932Z,101190.05
2018-05-09T04:02:09.313Z,101192.95
2018-05-09T04:04:48.533Z,101193.39
2018-05-09T04:07:27.693Z,101190.16
2018-05-09T04:09:55.921Z,101191.39
2018-05-09T04:12:23.401Z,101203.94
2018-05-09T04:14:50.852Z,101193.81
2018-05-09T04:17:19.241Z,101199.84
2018-05-09T04:19:46.649Z,101197.98
2018-05-09T04:22:14.101Z,101204.55
2018-05-09T04:24:41.622Z,101202.35
2018-05-09T04:27:09.174Z,101196.50
2018-05-09T04:29:36.629Z,101203.18
2018-05-09T04:32:04.077Z,101208.10
2018-05-09T04:34:31.488Z,101207.09
2018-05-09T04:36:59.002Z,101207.05
2018-05-09T04:39:27.692Z,101205.91
2018-05-09T04:41:55.125Z,101201.58
2018-05-09T04:44:22.601Z,101199.84
2018-05-09T04:46:50.024Z,101197.03
2018-05-09T04:49:17.554Z,101198.94
2018-05-09T04:51:44.937Z,101195.50
2018-05-09T04:54:12.530Z,101184.83
2018-05-09T04:56:39.986Z,101193.86
2018-05-09T04:59:07.445Z,101194.77
2018-05-09T05:01:34.863Z,101201.01
2018-05-09T05:04:02.309Z,101201.91
2018-05-09T05:06:29.718Z,101191.70
2018-05-09T05:08:57.177Z,101194.67
2018-05-09T05:11:24.592Z,101196.92
2018-05-09T05:13:51.998Z,101197.61
2018-05-09T05:16:19.434Z,101201.09
2018-05-09T05:18:46.849Z,101198.83
2018-05-09T05:21:14.285Z,101205.46
2018-05-09T05:23:41.718Z,101210.48
2018-05-09T05:26:09.153Z,101206.09
2018-05-09T05:28:36.560Z,101206.56
2018-05-09T05:31:04.068Z,101204.99
2018-05-09T05:33:33.441Z,101200.16
2018-05-09T05:36:00.897Z,101205.17
2018-05-09T05:38:28.297Z,101207.50
2018-05-09T05:40:55.765Z,101198.78
2018-05-09T05:43:23.294Z,101203.23
2018-05-09T05:45:50.728Z,101203.47
2018-05-09T05:48:18.214Z,101205.38
2018-05-09T05:50:45.741Z,101204.05
2018-05-09T05:53:13.149Z,101215.81
2018-05-09T05:55:40.585Z,101204.64
2018-05-09T05:58:08.112Z,101211.77
2018-05-09T06:00:35.598Z,101212.09
2018-05-09T06:03:03.054Z,101208.78
2018-05-09T06:05:30.625Z,101208.81
2018-05-09T06:07:58.066Z,101196.21
2018-05-09T06:10:25.482Z,101199.81
2018-05-09T06:12:53.894Z,101200.34
2018-05-09T06:15:21.309Z,101199.11
2018-05-09T06:17:48.741Z,101203.84
2018-05-09T06:20:16.151Z,101202.27
2018-05-09T06:22:43.587Z,101193.72
2018-05-09T06:25:11.000Z,101192.95
2018-05-09T06:27:38.441Z,101188.24
2018-05-09T06:30:05.860Z,101195.61
2018-05-09T06:32:33.299Z,101196.63
2018-05-09T06:35:00.810Z,101199.10
2018-05-09T06:37:28.222Z,101203.32
2018-05-09T06:39:55.726Z,101204.94
2018-05-09T06:42:23.157Z,101211.80
2018-05-09T06:44:50.591Z,101207.02
2018-05-09T06:47:18.101Z,101207.17
2018-05-09T06:49:45.561Z,101207.63
2018-05-09T06:52:12.976Z,101214.54
2018-05-09T06:54:40.466Z,101207.84
2018-05-09T06:57:07.874Z,101209.05
2018-05-09T06:59:35.431Z,101210.53
2018-05-09T07:02:03.733Z,101205.15
2018-05-09T07:04:31.166Z,101204.10
2018-05-09T07:06:58.573Z,101199.68
2018-05-09T07:09:26.011Z,101200.88
2018-05-09T07:11:53.481Z,101195.91
2018-05-09T07:14:21.862Z,101203.20
2018-05-09T07:16:49.320Z,101205.54
2018-05-09T07:19:16.689Z,101203.55
2018-05-09T07:21:44.125Z,101207.37
2018-05-09T07:24:11.571Z,101203.22
2018-05-09T07:26:39.065Z,101205.46
2018-05-09T07:29:06.476Z,101202.56
2018-05-09T07:31:33.953Z,101198.42
2018-05-09T07:34:01.363Z,101199.75
2018-05-09T07:36:28.870Z,101199.19
2018-05-09T07:38:57.217Z,101200.53
2018-05-09T07:41:24.707Z,101199.55
2018-05-09T07:43:52.123Z,101205.86
2018-05-09T07:46:19.558Z,101202.82
2018-05-09T07:48:46.967Z,101206.27
2018-05-09T07:51:14.416Z,101207.47
2018-05-09T07:53:41.985Z,101208.60
2018-05-09T07:56:09.429Z,101203.23
2018-05-09T07:58:36.858Z,101207.53
2018-05-09T08:01:05.282Z,101199.60
2018-05-09T08:03:32.738Z,101193.27
2018-05-09T08:06:00.329Z,101196.11
2018-05-09T08:08:28.642Z,101199.77
2018-05-09T08:10:56.129Z,101192.89
2018-05-09T08:13:23.571Z,101197.65
2018-05-09T08:15:50.989Z,101190.77
2018-05-09T08:18:18.425Z,101191.64
2018-05-09T08:20:45.848Z,101193.69
2018-05-09T08:23:13.317Z,101204.77
2018-05-09T08:25:41.703Z,101196.48
2018-05-09T08:28:09.140Z,101194.04
2018-05-09T08:30:36.549Z,101184.23
2018-05-09T08:33:03.977Z,101189.52
2018-05-09T08:35:31.414Z,101189.87
2018-05-09T08:37:58.859Z,101182.85
2018-05-09T08:40:26.271Z,101187.55
2018-05-09T08:42:53.701Z,101187.14
2018-05-09T08:45:21.142Z,101183.95
2018-05-09T08:47:48.573Z,101187.64
2018-05-09T08:50:16.052Z,101183.27
2018-05-09T08:52:43.489Z,101180.22
2018-05-09T08:55:10.966Z,101185.06
2018-05-09T08:57:38.429Z,101180.34
2018-05-09T09:00:05.849Z,101179.13
2018-05-09T09:02:34.254Z,101171.61
2018-05-09T09:05:01.694Z,101181.02
2018-05-09T09:07:29.110Z,101181.70
2018-05-09T09:09:57.556Z,101173.46
2018-05-09T09:12:24.979Z,101165.38
2018-05-09T09:14:52.417Z,101170.92
2018-05-09T09:17:20.723Z,101175.47
2018-05-09T09:19:49.110Z,101177.88
2018-05-09T09:22:16.524Z,101177.98
2018-05-09T09:24:44.954Z,101180.81
2018-05-09T09:27:12.365Z,101178.49
2018-05-09T09:29:39.871Z,101177.91
2018-05-09T09:32:07.285Z,101183.05
2018-05-09T09:34:34.747Z,101171.31
2018-05-09T09:37:02.158Z,101174.95
2018-05-09T09:39:29.577Z,101163.45
2018-05-09T09:41:57.018Z,101162.70
2018-05-09T09:44:24.446Z,101168.75
2018-05-09T09:46:51.943Z,101162.92
2018-05-09T09:49:19.298Z,101158.53
2018-05-09T09:51:46.769Z,101163.52
2018-05-09T09:54:14.177Z,101163.03
2018-05-09T09:56:42.602Z,101156.80
2018-05-09T09:59:10.061Z,101158.25
2018-05-09T10:01:37.552Z,101146.91
2018-05-09T10:04:05.865Z,101157.73
2018-05-09T10:06:33.296Z,101149.36
2018-05-09T10:09:01.747Z,101147.12
2018-05-09T10:11:29.212Z,101143.39
2018-05-09T10:13:56.622Z,101147.26
2018-05-09T10:16:24.066Z,101132.48
2018-05-09T10:18:51.495Z,101135.77
2018-05-09T10:21:18.922Z,101132.34
2018-05-09T10:23:46.370Z,101138.52
2018-05-09T10:26:13.795Z,101137.86
2018-05-09T10:28:41.241Z,101137.89
2018-05-09T10:31:08.662Z,101132.93
2018-05-09T10:33:36.198Z,101124.98
2018-05-09T10:36:04.580Z,101129.42
2018-05-09T10:38:32.958Z,101127.08
2018-05-09T10:41:00.372Z,101132.27
2018-05-09T10:43:27.817Z,101127.44
2018-05-09T10:45:55.234Z,101128.67
2018-05-09T10:48:22.677Z,101126.58
2018-05-09T10:50:50.110Z,101128.68
2018-05-09T10:53:17.534Z,101118.32
2018-05-09T10:55:44.938Z,101128.31
2018-05-09T10:58:12.385Z,101118.73
2018-05-09T11:00:39.800Z,101119.73
2018-05-09T11:03:07.264Z,101119.13
2018-05-09T11:05:34.668Z,101108.95
2018-05-09T11:08:02.098Z,101116.78
2018-05-09T11:10:29.729Z,101116.44
2018-05-09T11:12:57.111Z,101120.81
2018-05-09T11:15:24.607Z,101120.02
2018-05-09T11:17:52.058Z,101118.64
2018-05-09T11:20:19.505Z,101123.08
2018-05-09T11:22:46.969Z,101127.66
2018-05-09T11:25:14.433Z,101119.67
2018-05-09T11:27:41.858Z,101124.83
2018-05-09T11:30:09.305Z,101120.09
2018-05-09T11:32:36.718Z,101120.49
2018-05-09T11:35:04.261Z,101117.05
2018-05-09T11:37:31.776Z,101115.34
2018-05-09T11:39:59.170Z,101116.16
2018-05-09T11:42:26.600Z,101111.98
2018-05-09T11:44:54.093Z,101112.66
2018-05-09T11:47:21.543Z,101108.95
2018-05-09T11:49:49.186Z,101109.13
2018-05-09T11:52:16.598Z,101104.56
2018-05-09T11:54:44.022Z,101101.95
2018-05-09T11:57:13.417Z,101101.18
2018-05-09T11:59:40.851Z,101104.82
2018-05-09T12:02:08.291Z,101105.69
2018-05-09T12:04:35.718Z,101099.66
2018-05-09T12:07:03.155Z,101093.23
2018-05-09T12:09:30.587Z,101089.11
2018-05-09T12:11:58.030Z,101088.25
2018-05-09T12:14:25.453Z,101088.61
2018-05-09T12:16:52.886Z,101086.05
2018-05-09T12:19:21.322Z,101082.43
2018-05-09T12:21:49.679Z,101088.73
2018-05-09T12:24:17.103Z,101086.12
2018-05-09T12:26:44.547Z,101088.48
2018-05-09T12:29:12.879Z,101083.56
2018-05-09T12:31:41.866Z,101079.48
2018-05-09T12:34:09.286Z,101073.80
2018-05-09T12:36:37.199Z,101077.98
2018-05-09T12:39:04.656Z,101065.00
2018-05-09T12:41:32.082Z,101064.39
2018-05-09T12:44:00.516Z,101059.91
2018-05-09T12:46:27.981Z,101061.45
2018-05-09T12:49:00.051Z,101057.89
2018-05-09T12:51:28.811Z,101064.53
2018-05-09T12:53:56.267Z,101063.77
2018-05-09T12:56:23.738Z,101053.06
2018-05-09T12:58:52.123Z,101051.16
2018-05-09T13:01:19.540Z,101050.93
2018-05-09T13:03:46.994Z,101045.05
2018-05-09T13:06:14.402Z,101044.70
2018-05-09T13:08:41.837Z,101043.70
2018-05-09T13:11:09.269Z,101047.30
2018-05-09T13:13:36.725Z,101035.05
2018-05-09T13:16:04.134Z,101032.66
2018-05-09T13:18:32.592Z,101036.05
2018-05-09T13:21:00.945Z,101036.89
2018-05-09T13:23:28.409Z,101033.42
2018-05-09T13:25:55.924Z,101025.77
2018-05-09T13:28:23.263Z,101017.91
2018-05-09T13:30:50.725Z,101020.70
2018-05-09T13:33:18.143Z,101026.16
2018-05-09T13:35:45.579Z,101020.90
2018-05-09T13:38:12.999Z,101016.95
2018-05-09T13:40:40.446Z,101014.31
2018-05-09T13:43:07.849Z,101009.66
2018-05-09T13:45:35.298Z,101012.19
2018-05-09T13:48:02.713Z,101005.41
2018-05-09T13:50:30.157Z,101000.11
2018-05-09T13:52:58.487Z,100994.59
2018-05-09T13:55:25.934Z,101000.08
2018-05-09T13:57:53.346Z,100994.77
2018-05-09T14:00:20.787Z,100993.79
2018-05-09T14:02:49.146Z,100989.84
2018-05-09T14:05:17.482Z,100996.82
2018-05-09T14:07:44.900Z,100991.02
2018-05-09T14:10:12.334Z,100991.77
2018-05-09T14:12:39.750Z,100992.17
2018-05-09T14:15:07.197Z,100986.22
2018-05-09T14:17:34.598Z,100989.89
2018-05-09T14:20:03.089Z,100986.97
2018-05-09T14:22:31.466Z,100989.45
2018-05-09T14:24:59.803Z,100981.32
2018-05-09T14:27:27.238Z,100975.90
2018-05-09T14:29:54.654Z,100967.56
2018-05-09T14:32:22.155Z,100975.17
2018-05-09T14:34:49.514Z,100972.11
2018-05-09T14:37:16.950Z,100973.52
2018-05-09T14:39:44.366Z,100978.99
2018-05-09T14:42:11.803Z,100967.14
2018-05-09T14:44:40.203Z,100969.98
2018-05-09T14:47:07.655Z,100972.76
2018-05-09T14:49:36.039Z,100961.58
2018-05-09T14:52:03.494Z,100958.30
2018-05-09T14:54:30.929Z,100948.58
2018-05-09T14:56:59.271Z,100950.47
2018-05-09T14:59:26.705Z,100949.81
2018-05-09T15:01:54.162Z,100951.38
2018-05-09T15:04:21.585Z,100957.56
2018-05-09T15:06:49.000Z,100956.42
2018-05-09T15:09:16.447Z,100949.38
2018-05-09T15:11:43.858Z,100944.48
2018-05-09T15:14:12.214Z,100950.91
2018-05-09T15:16:39.638Z,100948.62
2018-05-09T15:19:07.072Z,100947.76
2018-05-09T15:21:34.485Z,100940.34
2018-05-09T15:24:02.952Z,100929.18
2018-05-09T15:26:30.388Z,100940.71
2018-05-09T15:29:02.646Z,100942.59
2018-05-09T15:31:30.063Z,100935.63
2018-05-09T15:33:59.528Z,100943.98
2018-05-09T15:36:31.742Z,100938.98
2018-05-09T15:38:59.256Z,100936.66
2018-05-09T15:41:26.622Z,100945.37
2018-05-09T15:43:54.072Z,100939.95
2018-05-09T15:46:25.472Z,100937.55
2018-05-09T15:48:52.916Z,100929.31
2018-05-09T15:51:20.331Z,100928.42
2018-05-09T15:53:48.722Z,100929.25
2018-05-09T15:56:16.540Z,100929.93
2018-05-09T15:58:44.903Z,100922.48
2018-05-09T16:01:12.342Z,100920.12
2018-05-09T16:03:39.753Z,100917.06
2018-05-09T16:06:07.697Z,100917.55
2018-05-09T16:08:35.113Z,100913.91
2018-05-09T16:11:02.558Z,100912.97
2018-05-09T16:13:29.971Z,100916.25
2018-05-09T16:15:57.413Z,100917.63
2018-05-09T16:18:24.850Z,100913.66
2018-05-09T16:20:52.292Z,100917.77
2018-05-09T16:23:19.709Z,100909.84
2018-05-09T16:25:47.185Z,100915.37
2018-05-09T16:28:14.593Z,100912.15
2018-05-09T16:30:42.034Z,100914.89
2018-05-09T16:33:10.413Z,100907.97
2018-05-09T16:35:38.818Z,100908.41
2018-05-09T16:38:06.240Z,100917.06
2018-05-09T16:40:33.706Z,100909.20
2018-05-09T16:43:01.121Z,100899.69
2018-05-09T16:45:28.540Z,100902.01
2018-05-09T16:47:55.973Z,100903.74
2018-05-09T16:50:25.377Z,100901.98
2018-05-09T16:52:53.781Z,100899.06
2018-05-09T16:55:21.230Z,100897.28
2018-05-09T16:57:48.670Z,100895.15
2018-05-09T17:00:17.049Z,100891.05
2018-05-09T17:02:44.488Z,100897.77
2018-05-09T17:05:11.961Z,100898.50
2018-05-09T17:07:39.399Z,100910.10
2018-05-09T17:10:07.823Z,100904.82
2018-05-09T17:12:35.255Z,100907.55
2018-05-09T17:15:02.707Z,100907.42
2018-05-09T17:17:30.190Z,100900.25
2018-05-09T17:19:57.614Z,100902.20
2018-05-09T17:22:33.010Z,100902.00
2018-05-09T17:25:01.338Z,100900.51
2018-05-09T17:27:28.791Z,100902.31
2018-05-09T17:29:59.540Z,100896.67
2018-05-09T17:32:26.995Z,100901.17
2018-05-09T17:34:55.314Z,100903.72
2018-05-09T17:37:22.732Z,100898.84
2018-05-09T17:39:50.165Z,100898.42
2018-05-09T17:42:19.594Z,100894.59
2018-05-09T17:44:47.036Z,100897.53
2018-05-09T17:47:14.462Z,100897.68
2018-05-09T17:49:41.902Z,100903.72
2018-05-09T17:52:09.310Z,100904.86
2018-05-09T17:54:36.751Z,100900.30
2018-05-09T17:57:04.170Z,100893.50
2018-05-09T17:59:31.601Z,100895.57
2018-05-09T18:01:59.960Z,100888.88
2018-05-09T18:04:27.402Z,100889.50
2018-05-09T18:06:54.810Z,100888.06
2018-05-09T18:09:22.264Z,100888.19
2018-05-09T18:11:49.688Z,100883.83
2018-05-09T18:14:17.094Z,100894.82
2018-05-09T18:16:44.531Z,100893.00
2018-05-09T18:19:12.877Z,100895.34
2018-05-09T18:21:41.233Z,100890.83
2018-05-09T18:24:08.650Z,100893.64
2018-05-09T18:26:36.090Z,100881.91
2018-05-09T18:29:05.420Z,100885.36
2018-05-09T18:31:33.778Z,100887.72
2018-05-09T18:34:01.204Z,100885.41
2018-05-09T18:36:28.646Z,100886.73
2018-05-09T18:38:56.066Z,100886.36
2018-05-09T18:41:23.506Z,100887.02
2018-05-09T18:43:51.841Z,100887.56
2018-05-09T18:46:19.279Z,100891.52
2018-05-09T18:48:46.696Z,100898.45
2018-05-09T18:51:14.138Z,100897.75
2018-05-09T18:53:42.486Z,100897.97
2018-05-09T18:56:09.921Z,100898.92
2018-05-09T18:58:38.350Z,100901.67
2018-05-09T19:01:05.802Z,100894.22
2018-05-09T19:03:33.242Z,100899.94
2018-05-09T19:06:00.661Z,100897.52
2018-05-09T19:08:29.110Z,100896.87
2018-05-09T19:10:56.540Z,100894.88
2018-05-09T19:13:23.984Z,100900.17
2018-05-09T19:15:51.394Z,100893.23
2018-05-09T19:18:18.833Z,100898.58
2018-05-09T19:20:46.262Z,100900.86
2018-05-09T19:23:13.792Z,100900.98
2018-05-09T19:25:41.129Z,100905.22
2018-05-09T19:28:09.579Z,100907.38
2018-05-09T19:30:36.986Z,100907.69
2018-05-09T19:33:04.426Z,100908.25
2018-05-09T19:35:31.837Z,100908.40
2018-05-09T19:37:59.300Z,100916.20
2018-05-09T19:40:26.706Z,100913.25
2018-05-09T19:42:54.122Z,100913.33
2018-05-09T19:45:21.564Z,100906.30
2018-05-09T19:47:48.995Z,100912.88
2018-05-09T19:50:16.417Z,100910.89
2018-05-09T19:52:43.840Z,100910.48
2018-05-09T19:55:11.317Z,100905.20
2018-05-09T19:57:38.693Z,100903.77
2018-05-09T20:00:07.337Z,100905.76
2018-05-09T20:02:34.746Z,100908.36
2018-05-09T20:05:02.185Z,100908.86
2018-05-09T20:07:29.608Z,100906.58
2018-05-09T20:09:57.058Z,100914.79
2018-05-09T20:12:25.404Z,100905.77
2018-05-09T20:14:54.847Z,100906.78
2018-05-09T20:17:22.259Z,100902.50
2018-05-09T20:19:49.745Z,100904.79
2018-05-09T20:22:17.158Z,100907.98
2018-05-09T20:24:44.579Z,100907.13
2018-05-09T20:27:12.010Z,100907.03
2018-05-09T20:29:39.426Z,100907.53
2018-05-09T20:32:19.903Z,100909.97
2018-05-09T20:34:47.322Z,100915.91
2018-05-09T20:37:14.767Z,100909.74
2018-05-09T20:39:43.935Z,100915.50
2018-05-09T20:42:12.273Z,100911.17
2018-05-09T20:44:39.694Z,100912.63
2018-05-09T20:47:07.162Z,100916.55
2018-05-09T20:54:18.369Z,100907.64
2018-05-09T20:56:45.821Z,100911.52
2018-05-09T20:59:13.249Z,100910.34
2018-05-09T21:01:47.317Z,100908.24
2018-05-09T21:04:14.750Z,100908.73
2018-05-09T21:06:42.185Z,100905.17
2018-05-09T21:09:11.614Z,100913.22
2018-05-09T21:14:35.596Z,100905.05
2018-05-09T21:17:03.985Z,100902.56
2018-05-09T21:19:31.421Z,100901.11
2018-05-09T21:21:58.896Z,100902.47
2018-05-09T21:24:27.114Z,100901.78
2018-05-09T21:26:55.502Z,100907.41
2018-05-09T21:29:22.954Z,100904.84
2018-05-09T21:31:51.291Z,100901.70
2018-05-09T21:34:18.746Z,100904.08
2018-05-09T21:36:46.199Z,100905.77
2018-05-09T21:39:13.665Z,100909.05
2018-05-09T21:41:41.077Z,100902.38
2018-05-09T21:44:08.521Z,100898.99
2018-05-09T21:46:35.941Z,100900.09
2018-05-09T21:49:04.235Z,100896.97
2018-05-09T21:51:33.550Z,100899.16
2018-05-09T21:54:00.994Z,100896.83
2018-05-09T21:56:28.408Z,100894.21
2018-05-09T21:58:56.882Z,100901.16
2018-05-09T22:01:24.307Z,100898.24
2018-05-09T22:03:51.724Z,100894.36
2018-05-09T22:06:19.157Z,100893.30
2018-05-09T22:08:46.567Z,100895.17
2018-05-09T22:11:14.009Z,100890.06
2018-05-09T22:13:41.422Z,100890.00
2018-05-09T22:16:08.861Z,100886.41
2018-05-09T22:18:36.274Z,100880.73
2018-05-09T22:21:03.718Z,100875.92
2018-05-09T22:23:31.171Z,100876.98
2018-05-09T22:25:58.616Z,100872.52
2018-05-09T22:28:26.028Z,100875.60
2018-05-09T22:30:53.458Z,100866.12
2018-05-09T22:33:20.882Z,100869.88
2018-05-09T22:35:49.334Z,100868.55
2018-05-09T22:38:16.761Z,100864.25
2018-05-09T22:40:44.179Z,100864.45
2018-05-09T22:43:11.629Z,100866.98
2018-05-09T22:45:39.045Z,100863.20
2018-05-09T22:48:06.478Z,100860.30
2018-05-09T22:50:33.893Z,100853.03
2018-05-09T22:53:01.338Z,100851.31
2018-05-09T22:55:28.753Z,100850.04
2018-05-09T22:57:56.210Z,100846.11
2018-05-09T23:00:23.626Z,100840.05
2018-05-09T23:02:51.074Z,100835.31
2018-05-09T23:05:18.494Z,100834.84
2018-05-09T23:07:47.914Z,100832.12
2018-05-09T23:10:15.418Z,100827.42
2018-05-09T23:12:42.831Z,100820.30
2018-05-09T23:15:10.237Z,100819.20
2018-05-09T23:17:38.646Z,100823.95
2018-05-09T23:20:06.067Z,100823.16
2018-05-09T23:22:33.531Z,100817.86
2018-05-09T23:25:00.942Z,100813.30
2018-05-09T23:27:29.266Z,100812.92
2018-05-09T23:29:57.618Z,100804.67
2018-05-09T23:32:25.030Z,100805.36
2018-05-09T23:34:52.470Z,100807.36
2018-05-09T23:37:19.889Z,100799.88
2018-05-09T23:39:47.326Z,100795.18
2018-05-09T23:42:14.739Z,100799.50
2018-05-09T23:44:42.183Z,100796.79
2018-05-09T23:47:09.594Z,100798.11
2018-05-09T23:49:37.026Z,100795.97
2018-05-09T23:52:04.501Z,100791.73
2018-05-09T23:54:31.928Z,100794.94
2018-05-09T23:57:00.239Z,100788.65
2018-05-09T23:59:28.026Z,100788.97
